Aérodrome :
LOGIN :

S'inscrire | Disclaimer

   EN    FR    IT 

 










Légende :    VFR   VFR Marginal   IFR   IFR Intensif   IFR Très Intensif
Visi : 
Plafond : 
>= 8 km
>= 3000ft
5 à 8 km
1000 à 3000 ft
1500m à 5 km
500 à 1000 ft
800 à 1500m
200 à 500 ft
< 800m
< 200 ft
Symboles :   Orages  Brouillard  Fortes neiges  Fortes précipitations  Vent > 20 kt
SIGMETs :   Divers  Orages  Givrage  Turbulence  Onde Orograph.  Cendres Volcan.






- Altitude de l'aérodrome : 1521 ft
- Code IATA : NCY


LFLP - Annecy

DERNIER METAR :
  • 130500Z AUTO 03005KT CAVOK 01/M02 Q1026 BECMG 02015KT

METARs EXPIRÉS :
  • 130430Z AUTO 01005KT 340V050 CAVOK 01/M02 Q1026 BECMG 02015KT
  • 130400Z AUTO 02005KT CAVOK 01/M02 Q1026 NOSIG
  • 130330Z AUTO 03007KT CAVOK 01/M02 Q1026 NOSIG
  • 130300Z AUTO 05007KT CAVOK 01/M02 Q1026 NOSIG
  • 130230Z AUTO 02004KT CAVOK 02/M02 Q1026 NOSIG

TAF TAF LFLP
Valide du 13 à 03h jusqu'au 14 à 03h UTC


130200Z 1303/1403 02005KT CAVOK
BECMG 1306/1309 02015KT
BECMG 1322/1401 VRB03KT



MET'MAP, la Météo Aéronautique d'un coup d'oeil ! - Copyright ORBIFLY Décembre 2007 - Disclaimer

ORBIFLY MET'MAP TEAM :

Programmation & Développement : Alexandra Zaïnal
Sur une idée originale de : Baudouin d'Aumeries
Assistance à la programmation : Marc-Olivier Méhu
Soutien technique & logistique : Manuel Goepfert

Contact : metmap@orbifly.com




SOURCES & CREDITS :

   NOAA